createdAt,value
2018-12-30T00:00:48.952Z,6.14
2018-12-30T00:01:48.960Z,6.06
2018-12-30T00:02:48.932Z,6.13
2018-12-30T00:03:48.932Z,6.13
2018-12-30T00:04:49.775Z,6.16
2018-12-30T00:05:48.899Z,6.14
2018-12-30T00:06:48.890Z,6.06
2018-12-30T00:07:48.878Z,6.05
2018-12-30T00:08:48.865Z,6.05
2018-12-30T00:09:48.873Z,6.06
2018-12-30T00:10:48.899Z,6.13
2018-12-30T00:11:48.834Z,6.14
2018-12-30T00:12:48.827Z,6.14
2018-12-30T00:13:48.817Z,6.13
2018-12-30T00:14:48.822Z,6.13
2018-12-30T00:15:48.794Z,6.08
2018-12-30T00:16:48.780Z,6.10
2018-12-30T00:17:48.769Z,6.10
2018-12-30T00:18:48.766Z,6.14
2018-12-30T00:19:48.802Z,6.16
2018-12-30T00:20:48.751Z,6.17
2018-12-30T00:21:48.726Z,6.24
2018-12-30T00:22:48.772Z,6.24
2018-12-30T00:23:48.704Z,6.13
2018-12-30T00:24:48.703Z,6.16
2018-12-30T00:25:48.680Z,6.21
2018-12-30T00:26:48.670Z,6.19
2018-12-30T00:27:48.659Z,6.28
2018-12-30T00:28:48.672Z,6.28
2018-12-30T00:29:48.648Z,6.24
2018-12-30T00:30:48.628Z,6.21
2018-12-30T00:31:48.617Z,6.28
2018-12-30T00:32:48.609Z,6.28
2018-12-30T00:33:48.609Z,6.25
2018-12-30T00:34:48.616Z,6.36
2018-12-30T00:35:48.581Z,6.27
2018-12-30T00:36:48.564Z,6.35
2018-12-30T00:37:48.557Z,6.35
2018-12-30T00:38:48.541Z,6.38
2018-12-30T00:39:48.535Z,6.45
2018-12-30T00:40:48.533Z,6.46
2018-12-30T00:41:48.513Z,6.46
2018-12-30T00:42:48.498Z,6.45
2018-12-30T00:43:48.491Z,6.46
2018-12-30T00:44:48.478Z,6.42
2018-12-30T00:45:48.479Z,6.45
2018-12-30T00:46:48.457Z,6.39
2018-12-30T00:47:48.447Z,6.43
2018-12-30T00:48:48.436Z,6.43
2018-12-30T00:49:48.425Z,6.38
2018-12-30T00:50:48.424Z,6.51
2018-12-30T00:51:48.402Z,6.55
2018-12-30T00:52:48.392Z,6.53
2018-12-30T00:53:48.383Z,6.51
2018-12-30T00:54:48.373Z,6.48
2018-12-30T00:55:48.372Z,6.54
2018-12-30T00:56:48.352Z,6.53
2018-12-30T00:57:48.338Z,6.51
2018-12-30T00:58:48.339Z,6.53
2018-12-30T00:59:48.317Z,6.58
2018-12-30T01:00:48.319Z,6.61
2018-12-30T01:01:48.299Z,6.61
2018-12-30T01:02:48.284Z,6.53
2018-12-30T01:03:48.279Z,6.58
2018-12-30T01:04:48.294Z,6.58
2018-12-30T01:05:48.270Z,6.57
2018-12-30T01:06:48.244Z,6.57
2018-12-30T01:07:48.234Z,6.55
2018-12-30T01:08:48.823Z,6.58
2018-12-30T01:09:48.209Z,6.58
2018-12-30T01:10:48.216Z,6.58
2018-12-30T01:11:48.241Z,6.58
2018-12-30T01:12:48.182Z,6.61
2018-12-30T01:13:48.171Z,6.61
2018-12-30T01:14:48.156Z,6.61
2018-12-30T01:15:48.180Z,6.58
2018-12-30T01:16:48.139Z,6.61
2018-12-30T01:17:48.129Z,6.60
2018-12-30T01:18:48.119Z,6.61
2018-12-30T01:19:48.105Z,6.57
2018-12-30T01:20:48.095Z,6.60
2018-12-30T01:21:48.094Z,6.71
2018-12-30T01:22:48.068Z,6.65
2018-12-30T01:23:48.059Z,6.65
2018-12-30T01:24:48.048Z,6.65
2018-12-30T01:25:48.036Z,6.68
2018-12-30T01:26:48.039Z,6.68
2018-12-30T01:27:48.016Z,6.72
2018-12-30T01:28:48.005Z,6.73
2018-12-30T01:29:48.000Z,6.79
2018-12-30T01:30:47.987Z,6.78
2018-12-30T01:31:56.836Z,6.78
2018-12-30T01:32:47.962Z,6.76
2018-12-30T01:33:47.951Z,6.79
2018-12-30T01:34:47.944Z,6.81
2018-12-30T01:35:47.928Z,6.82
2018-12-30T01:36:47.928Z,6.86
2018-12-30T01:37:47.906Z,6.83
2018-12-30T01:44:38.733Z,6.91
2018-12-30T01:45:38.710Z,6.91
2018-12-30T01:46:38.717Z,6.93
2018-12-30T01:47:38.704Z,6.99
2018-12-30T01:48:38.678Z,6.94
2018-12-30T01:49:38.667Z,6.97
2018-12-30T01:50:38.660Z,6.97
2018-12-30T01:51:38.645Z,6.94
2018-12-30T01:52:38.656Z,6.99
2018-12-30T01:53:38.624Z,6.91
2018-12-30T01:54:38.612Z,6.99
2018-12-30T01:55:38.607Z,6.97
2018-12-30T01:56:38.591Z,7.00
2018-12-30T01:57:38.591Z,6.96
2018-12-30T01:58:38.569Z,7.07
2018-12-30T01:59:38.561Z,7.05
2018-12-30T02:00:38.548Z,7.07
2018-12-30T02:01:38.541Z,7.01
2018-12-30T02:02:38.536Z,7.12
2018-12-30T02:03:38.515Z,7.01
2018-12-30T02:04:38.507Z,7.07
2018-12-30T02:05:38.495Z,7.14
2018-12-30T02:06:38.483Z,7.08
2018-12-30T02:07:38.513Z,7.07
2018-12-30T02:08:38.473Z,7.09
2018-12-30T02:09:38.458Z,7.09
2018-12-30T02:10:38.439Z,7.04
2018-12-30T02:11:38.427Z,7.07
2018-12-30T02:12:38.416Z,7.07
2018-12-30T02:13:38.425Z,7.07
2018-12-30T02:14:38.401Z,7.12
2018-12-30T02:15:38.383Z,7.12
2018-12-30T02:16:38.375Z,7.08
2018-12-30T02:17:38.363Z,7.11
2018-12-30T02:18:38.365Z,7.08
2018-12-30T02:19:38.339Z,7.14
2018-12-30T02:20:38.329Z,7.12
2018-12-30T02:21:41.255Z,7.11
2018-12-30T02:22:38.310Z,7.00
2018-12-30T02:23:38.315Z,7.11
2018-12-30T02:24:38.289Z,7.09
2018-12-30T02:25:38.275Z,7.11
2018-12-30T02:26:38.273Z,7.15
2018-12-30T02:27:38.254Z,7.09
2018-12-30T02:28:38.255Z,7.14
2018-12-30T02:29:38.230Z,7.09
2018-12-30T02:30:38.233Z,7.19
2018-12-30T02:31:38.216Z,7.15
2018-12-30T02:32:38.198Z,7.09
2018-12-30T02:33:38.218Z,7.18
2018-12-30T02:34:38.179Z,7.18
2018-12-30T02:35:38.168Z,7.21
2018-12-30T02:36:38.167Z,7.19
2018-12-30T02:37:38.150Z,7.19
2018-12-30T02:38:38.133Z,7.19
2018-12-30T02:39:38.183Z,7.26
2018-12-30T02:40:38.111Z,7.16
2018-12-30T02:41:38.214Z,7.16
2018-12-30T02:42:38.091Z,7.15
2018-12-30T02:43:38.085Z,7.24
2018-12-30T02:44:38.078Z,7.18
2018-12-30T02:45:38.056Z,7.18
2018-12-30T02:46:38.045Z,7.15
2018-12-30T02:47:38.035Z,7.18
2018-12-30T02:48:38.034Z,7.24
2018-12-30T02:49:38.028Z,7.19
2018-12-30T02:50:38.022Z,7.19
2018-12-30T02:51:37.993Z,7.21
2018-12-30T02:52:38.011Z,7.23
2018-12-30T02:53:37.968Z,7.30
2018-12-30T02:54:37.975Z,7.29
2018-12-30T02:55:37.949Z,7.30
2018-12-30T02:56:37.938Z,7.29
2018-12-30T02:57:37.927Z,7.30
2018-12-30T02:58:37.918Z,7.27
2018-12-30T02:59:37.915Z,7.33
2018-12-30T03:00:37.897Z,7.37
2018-12-30T03:01:37.884Z,7.33
2018-12-30T03:02:37.875Z,7.32
2018-12-30T03:03:37.862Z,7.33
2018-12-30T03:04:37.881Z,7.37
2018-12-30T03:05:37.847Z,7.32
2018-12-30T03:06:37.830Z,7.34
2018-12-30T03:07:37.819Z,7.33
2018-12-30T03:08:37.806Z,7.34
2018-12-30T03:09:37.797Z,7.34
2018-12-30T03:10:37.804Z,7.33
2018-12-30T03:11:37.797Z,7.34
2018-12-30T03:12:37.764Z,7.36
2018-12-30T03:13:37.752Z,7.37
2018-12-30T03:14:37.740Z,7.36
2018-12-30T03:15:37.741Z,7.44
2018-12-30T03:16:37.720Z,7.48
2018-12-30T03:17:37.716Z,7.45
2018-12-30T03:18:37.698Z,7.44
2018-12-30T03:19:37.687Z,7.45
2018-12-30T03:20:37.686Z,7.48
2018-12-30T03:21:37.671Z,7.45
2018-12-30T03:22:37.662Z,7.45
2018-12-30T03:23:37.650Z,7.52
2018-12-30T03:24:37.635Z,7.48
2018-12-30T03:25:37.642Z,7.50
2018-12-30T03:26:37.615Z,7.54
2018-12-30T03:27:37.599Z,7.50
2018-12-30T03:28:37.600Z,7.42
2018-12-30T03:29:37.578Z,7.51
2018-12-30T03:30:37.583Z,7.47
2018-12-30T03:31:37.561Z,7.55
2018-12-30T03:32:37.549Z,7.55
2018-12-30T03:33:37.536Z,7.55
2018-12-30T03:34:37.529Z,7.52
2018-12-30T03:35:37.523Z,7.58
2018-12-30T03:36:37.501Z,7.67
2018-12-30T03:37:37.492Z,7.63
2018-12-30T03:38:37.482Z,7.62
2018-12-30T03:39:37.468Z,7.69
2018-12-30T03:40:37.478Z,7.69
2018-12-30T03:41:37.451Z,7.60
2018-12-30T03:42:37.435Z,7.73
2018-12-30T03:43:37.425Z,7.62
2018-12-30T03:44:37.417Z,7.69
2018-12-30T03:45:37.445Z,7.63
2018-12-30T03:46:37.394Z,7.58
2018-12-30T03:47:37.380Z,7.67
2018-12-30T03:48:37.371Z,7.62
2018-12-30T03:49:37.365Z,7.71
2018-12-30T03:50:37.351Z,7.63
2018-12-30T03:51:37.359Z,7.63
2018-12-30T03:52:37.325Z,7.66
2018-12-30T03:53:37.318Z,7.70
2018-12-30T03:54:37.305Z,7.67
2018-12-30T03:55:37.294Z,7.71
2018-12-30T03:56:37.295Z,7.81
2018-12-30T03:57:37.271Z,7.76
2018-12-30T03:58:37.262Z,7.74
2018-12-30T03:59:37.251Z,7.71
2018-12-30T04:00:37.239Z,7.73
2018-12-30T04:01:37.239Z,7.73
2018-12-30T04:02:37.222Z,7.70
2018-12-30T04:03:37.206Z,7.73
2018-12-30T04:04:37.195Z,7.73
2018-12-30T04:05:37.192Z,7.79
2018-12-30T04:06:37.196Z,7.74
2018-12-30T04:07:37.167Z,7.74
2018-12-30T04:08:37.151Z,7.76
2018-12-30T04:09:37.140Z,7.74
2018-12-30T04:10:37.131Z,7.81
2018-12-30T04:11:37.132Z,7.82
2018-12-30T04:12:37.109Z,7.79
2018-12-30T04:13:37.098Z,7.82
2018-12-30T04:14:37.089Z,7.85
2018-12-30T04:15:37.082Z,7.82
2018-12-30T04:16:37.077Z,7.89
2018-12-30T04:17:37.059Z,7.84
2018-12-30T04:18:37.042Z,7.85
2018-12-30T04:19:37.049Z,7.91
2018-12-30T04:20:37.024Z,7.91
2018-12-30T04:21:37.053Z,7.92
2018-12-30T04:22:37.005Z,7.94
2018-12-30T04:23:36.992Z,7.94
2018-12-30T04:24:36.989Z,7.92
2018-12-30T04:25:36.967Z,7.88
2018-12-30T04:26:36.957Z,7.89
2018-12-30T04:27:36.958Z,7.89
2018-12-30T04:28:36.938Z,8.02
2018-12-30T04:29:36.924Z,7.92
2018-12-30T04:30:36.948Z,7.95
2018-12-30T04:31:36.904Z,7.96
2018-12-30T04:32:36.905Z,7.96
2018-12-30T04:33:36.879Z,8.00
2018-12-30T04:34:36.872Z,8.00
2018-12-30T04:35:36.860Z,8.07
2018-12-30T04:36:36.857Z,8.06
2018-12-30T04:37:36.850Z,8.03
2018-12-30T04:38:36.827Z,8.03
2018-12-30T04:39:36.815Z,8.03
2018-12-30T04:40:36.804Z,8.06
2018-12-30T04:41:36.800Z,8.09
2018-12-30T04:42:36.797Z,8.06
2018-12-30T04:43:36.770Z,8.06
2018-12-30T04:44:36.760Z,8.09
2018-12-30T04:45:36.749Z,8.07
2018-12-30T04:46:36.738Z,7.99
2018-12-30T04:47:36.751Z,8.12
2018-12-30T04:48:36.715Z,8.09
2018-12-30T04:49:36.706Z,8.03
2018-12-30T04:50:36.706Z,8.13
2018-12-30T04:51:36.685Z,8.06
2018-12-30T04:52:36.682Z,8.09
2018-12-30T04:53:36.669Z,8.09
2018-12-30T04:54:36.653Z,8.13
2018-12-30T04:55:36.680Z,8.09
2018-12-30T04:56:36.628Z,8.14
2018-12-30T04:57:36.634Z,8.07
2018-12-30T04:58:36.618Z,8.09
2018-12-30T04:59:36.598Z,8.12
2018-12-30T05:00:36.584Z,8.14
2018-12-30T05:01:36.573Z,8.12
2018-12-30T05:02:36.576Z,8.14
2018-12-30T05:03:36.553Z,8.18
2018-12-30T05:04:36.546Z,8.12
2018-12-30T05:05:36.529Z,8.28
2018-12-30T05:06:36.523Z,8.31
2018-12-30T05:07:36.545Z,8.21
2018-12-30T05:08:36.497Z,8.25
2018-12-30T05:09:36.487Z,8.20
2018-12-30T05:10:36.484Z,8.28
2018-12-30T05:11:36.467Z,8.24
2018-12-30T05:12:36.454Z,8.18
2018-12-30T05:13:36.456Z,8.25
2018-12-30T05:14:36.438Z,8.21
2018-12-30T05:15:36.421Z,8.20
2018-12-30T05:16:36.411Z,8.25
2018-12-30T05:17:36.404Z,8.28
2018-12-30T05:18:36.401Z,8.27
2018-12-30T05:19:36.379Z,8.21
2018-12-30T05:20:36.369Z,8.24
2018-12-30T05:21:36.363Z,8.29
2018-12-30T05:22:36.348Z,8.27
2018-12-30T05:23:36.344Z,8.20
2018-12-30T05:24:36.323Z,8.21
2018-12-30T05:25:36.313Z,8.18
2018-12-30T05:26:36.304Z,8.28
2018-12-30T05:27:36.297Z,8.21
2018-12-30T05:28:36.289Z,8.24
2018-12-30T05:29:36.267Z,8.28
2018-12-30T05:30:36.257Z,8.28
2018-12-30T05:31:36.247Z,8.24
2018-12-30T05:32:36.237Z,8.27
2018-12-30T05:33:36.239Z,8.21
2018-12-30T05:34:36.214Z,8.24
2018-12-30T05:35:36.205Z,8.21
2018-12-30T05:36:36.191Z,8.18
2018-12-30T05:37:36.183Z,8.28
2018-12-30T05:38:36.187Z,8.17
2018-12-30T05:39:36.159Z,8.18
2018-12-30T05:40:36.148Z,8.22
2018-12-30T05:41:36.137Z,8.22
2018-12-30T05:42:36.125Z,8.27
2018-12-30T05:43:36.157Z,8.25
2018-12-30T05:44:36.107Z,8.24
2018-12-30T05:45:36.094Z,8.18
2018-12-30T05:46:36.090Z,8.24
2018-12-30T05:47:36.074Z,8.14
2018-12-30T05:48:37.820Z,8.13
2018-12-30T05:49:36.049Z,8.10
2018-12-30T05:50:36.038Z,8.13
2018-12-30T05:51:36.032Z,8.09
2018-12-30T05:52:41.769Z,8.10
2018-12-30T05:53:37.036Z,8.07
2018-12-30T05:54:35.995Z,8.12
2018-12-30T05:55:35.986Z,8.09
2018-12-30T05:56:35.974Z,8.14
2018-12-30T05:57:35.964Z,8.09
2018-12-30T05:58:35.952Z,8.12
2018-12-30T05:59:35.954Z,8.04
2018-12-30T06:00:35.933Z,8.18
2018-12-30T06:01:35.916Z,8.07
2018-12-30T06:02:35.906Z,8.09
2018-12-30T06:03:35.896Z,8.07
2018-12-30T06:04:35.895Z,8.03
2018-12-30T06:05:35.872Z,8.02
2018-12-30T06:06:35.864Z,8.09
2018-12-30T06:07:35.871Z,8.03
2018-12-30T06:08:35.840Z,8.03
2018-12-30T06:09:35.840Z,8.03
2018-12-30T06:10:35.818Z,7.96
2018-12-30T06:11:35.808Z,7.94
2018-12-30T06:12:35.800Z,7.89
2018-12-30T06:13:35.784Z,7.95
2018-12-30T06:14:35.784Z,7.94
2018-12-30T06:15:35.763Z,7.92
2018-12-30T06:16:35.752Z,7.95
2018-12-30T06:17:35.747Z,7.84
2018-12-30T06:18:35.731Z,7.91
2018-12-30T06:19:36.008Z,7.94
2018-12-30T06:20:35.708Z,7.86
2018-12-30T06:21:35.699Z,7.92
2018-12-30T06:22:35.686Z,7.94
2018-12-30T06:23:35.678Z,7.91
2018-12-30T06:24:35.665Z,7.88
2018-12-30T06:25:35.665Z,7.91
2018-12-30T06:26:35.643Z,7.84
2018-12-30T06:27:35.630Z,7.85
2018-12-30T06:28:35.623Z,7.85
2018-12-30T06:29:35.609Z,7.82
2018-12-30T06:30:35.611Z,7.88
2018-12-30T06:31:35.588Z,7.84
2018-12-30T06:32:35.576Z,7.86
2018-12-30T06:33:35.565Z,7.88
2018-12-30T06:34:35.565Z,7.91
2018-12-30T06:35:35.563Z,7.89
2018-12-30T06:36:35.533Z,7.89
2018-12-30T06:37:35.527Z,7.85
2018-12-30T06:38:35.512Z,7.82
2018-12-30T06:39:35.501Z,7.91
2018-12-30T06:40:35.505Z,7.82
2018-12-30T06:41:35.533Z,7.82
2018-12-30T06:42:35.470Z,7.79
2018-12-30T06:43:35.455Z,7.74
2018-12-30T06:44:35.450Z,7.73
2018-12-30T06:45:35.444Z,7.73
2018-12-30T06:46:35.422Z,7.77
2018-12-30T06:47:35.415Z,7.79
2018-12-30T06:48:35.407Z,7.76
2018-12-30T06:49:35.391Z,7.76
2018-12-30T06:50:35.398Z,7.76
2018-12-30T06:51:35.368Z,7.71
2018-12-30T06:52:35.363Z,7.74
2018-12-30T06:53:35.347Z,7.71
2018-12-30T06:54:35.336Z,7.69
2018-12-30T06:55:35.336Z,7.71
2018-12-30T06:56:35.313Z,7.73
2018-12-30T06:57:35.306Z,7.73
2018-12-30T06:58:35.293Z,7.69
2018-12-30T06:59:35.284Z,7.69
2018-12-30T07:00:35.598Z,7.73
2018-12-30T07:01:35.259Z,7.66
2018-12-30T07:02:35.252Z,7.63
2018-12-30T07:03:35.239Z,7.60
2018-12-30T07:04:35.227Z,7.70
2018-12-30T07:05:35.216Z,7.66
2018-12-30T07:06:35.216Z,7.57
2018-12-30T07:07:35.195Z,7.55
2018-12-30T07:08:35.186Z,7.54
2018-12-30T07:09:35.172Z,7.51
2018-12-30T07:10:35.163Z,7.47
2018-12-30T07:11:35.162Z,7.52
2018-12-30T07:12:35.140Z,7.45
2018-12-30T07:13:35.130Z,7.52
2018-12-30T07:14:35.124Z,7.52
2018-12-30T07:15:35.107Z,7.48
2018-12-30T07:16:35.109Z,7.52
2018-12-30T07:17:35.089Z,7.45
2018-12-30T07:18:35.074Z,7.44
2018-12-30T07:19:35.067Z,7.44
2018-12-30T07:20:35.053Z,7.39
2018-12-30T07:21:35.053Z,7.42
2018-12-30T07:22:35.036Z,7.48
2018-12-30T07:23:35.061Z,7.47
2018-12-30T07:24:35.008Z,7.45
2018-12-30T07:25:34.999Z,7.37
2018-12-30T07:26:35.016Z,7.37
2018-12-30T07:27:34.975Z,7.33
2018-12-30T07:28:35.053Z,7.33
2018-12-30T07:29:34.955Z,7.30
2018-12-30T07:30:34.946Z,7.29
2018-12-30T07:31:34.948Z,7.36
2018-12-30T07:32:34.925Z,7.24
2018-12-30T07:33:34.909Z,7.16
2018-12-30T07:34:34.899Z,7.16
2018-12-30T07:35:34.895Z,7.24
2018-12-30T07:36:34.912Z,7.19
2018-12-30T07:37:34.867Z,7.19
2018-12-30T07:38:34.857Z,7.19
2018-12-30T07:39:34.846Z,7.26
2018-12-30T07:40:34.837Z,7.07
2018-12-30T07:41:34.823Z,7.23
2018-12-30T07:42:34.826Z,7.23
2018-12-30T07:43:34.800Z,7.14
2018-12-30T07:44:34.796Z,7.11
2018-12-30T07:45:34.870Z,7.15
2018-12-30T07:46:34.773Z,7.18
2018-12-30T07:47:34.771Z,7.18
2018-12-30T07:48:34.751Z,7.08
2018-12-30T07:49:34.738Z,7.11
2018-12-30T07:50:44.017Z,7.09
2018-12-30T07:51:34.715Z,7.16
2018-12-30T07:52:34.722Z,7.14
2018-12-30T07:53:34.695Z,7.15
2018-12-30T07:54:34.682Z,7.09
2018-12-30T07:55:34.676Z,7.07
2018-12-30T07:56:34.677Z,7.12
2018-12-30T07:57:34.664Z,7.08
2018-12-30T07:58:34.639Z,7.09
2018-12-30T07:59:34.634Z,7.11
2018-12-30T08:00:34.620Z,7.05
2018-12-30T08:01:34.614Z,7.08
2018-12-30T08:02:34.645Z,7.01
2018-12-30T08:03:34.589Z,7.14
2018-12-30T08:04:34.578Z,7.09
2018-12-30T08:05:34.561Z,7.07
2018-12-30T08:06:34.554Z,7.08
2018-12-30T08:07:34.544Z,7.08
2018-12-30T08:08:34.547Z,7.05
2018-12-30T08:09:34.519Z,7.04
2018-12-30T08:10:34.534Z,6.99
2018-12-30T08:11:34.500Z,7.08
2018-12-30T08:12:34.496Z,7.07
2018-12-30T08:13:34.501Z,7.09
2018-12-30T08:14:34.469Z,7.12
2018-12-30T08:15:34.466Z,7.09
2018-12-30T08:16:34.448Z,7.08
2018-12-30T08:17:34.436Z,7.07
2018-12-30T08:18:34.431Z,7.09
2018-12-30T08:19:34.414Z,7.09
2018-12-30T08:20:34.403Z,7.04
2018-12-30T08:21:34.402Z,6.99
2018-12-30T08:22:34.376Z,7.04
2018-12-30T08:23:34.381Z,6.97
2018-12-30T08:24:34.361Z,6.96
2018-12-30T08:25:34.350Z,6.91
2018-12-30T08:26:34.337Z,6.91
2018-12-30T08:27:34.332Z,6.93
2018-12-30T08:28:34.328Z,6.90
2018-12-30T08:29:34.301Z,6.93
2018-12-30T08:30:34.293Z,6.89
2018-12-30T08:31:34.279Z,6.87
2018-12-30T08:32:34.268Z,6.90
2018-12-30T08:33:34.270Z,6.91
2018-12-30T08:34:34.249Z,6.91
2018-12-30T08:35:34.934Z,6.94
2018-12-30T08:36:34.235Z,6.93
2018-12-30T08:37:34.222Z,6.90
2018-12-30T08:38:34.242Z,6.91
2018-12-30T08:39:34.191Z,6.91
2018-12-30T08:40:34.180Z,6.90
2018-12-30T08:41:34.175Z,6.87
2018-12-30T08:42:34.165Z,6.91
2018-12-30T08:43:34.147Z,6.89
2018-12-30T08:44:34.147Z,6.89
2018-12-30T08:45:34.131Z,6.89
2018-12-30T08:46:34.124Z,6.96
2018-12-30T08:47:34.112Z,6.90
2018-12-30T08:48:34.107Z,6.93
2018-12-30T08:49:34.099Z,6.93
2018-12-30T08:50:34.075Z,6.91
2018-12-30T08:51:34.061Z,6.87
2018-12-30T08:52:34.053Z,6.86
2018-12-30T08:53:34.041Z,6.83
2018-12-30T08:54:35.003Z,6.83
2018-12-30T08:55:34.021Z,6.91
2018-12-30T08:56:34.027Z,6.90
2018-12-30T08:57:34.005Z,6.91
2018-12-30T08:58:33.985Z,6.82
2018-12-30T08:59:33.990Z,6.83
2018-12-30T09:00:33.968Z,6.89
2018-12-30T09:01:33.955Z,6.81
2018-12-30T09:02:33.945Z,6.87
2018-12-30T09:03:33.935Z,6.82
2018-12-30T09:04:33.934Z,6.82
2018-12-30T09:05:33.919Z,6.91
2018-12-30T09:06:33.904Z,6.89
2018-12-30T09:07:33.891Z,6.82
2018-12-30T09:08:33.880Z,6.87
2018-12-30T09:09:34.057Z,6.89
2018-12-30T09:10:33.864Z,6.90
2018-12-30T09:11:33.862Z,6.94
2018-12-30T09:12:33.838Z,6.89
2018-12-30T09:13:33.829Z,6.86
2018-12-30T09:14:33.881Z,6.81
2018-12-30T09:15:33.814Z,6.81
2018-12-30T09:16:34.518Z,6.83
2018-12-30T09:17:33.802Z,6.83
2018-12-30T09:18:34.516Z,6.87
2018-12-30T09:19:33.765Z,6.90
2018-12-30T09:20:33.774Z,6.91
2018-12-30T09:21:33.742Z,6.94
2018-12-30T09:22:33.747Z,6.94
2018-12-30T09:23:37.447Z,6.91
2018-12-30T09:24:33.709Z,6.90
2018-12-30T09:25:33.710Z,6.94
2018-12-30T09:26:33.690Z,6.90
2018-12-30T09:27:33.677Z,6.90
2018-12-30T09:28:33.927Z,6.93
2018-12-30T09:29:35.510Z,6.99
2018-12-30T09:30:34.513Z,6.96
2018-12-30T09:31:33.903Z,6.97
2018-12-30T09:32:33.625Z,6.94
2018-12-30T09:33:34.523Z,6.94
2018-12-30T09:34:36.030Z,6.96
2018-12-30T09:35:37.061Z,6.94
2018-12-30T09:36:33.581Z,6.89
2018-12-30T09:37:35.029Z,6.90
2018-12-30T09:38:34.503Z,6.90
2018-12-30T09:39:33.550Z,6.91
2018-12-30T09:40:33.553Z,6.89
2018-12-30T09:41:33.547Z,6.91
2018-12-30T09:42:33.513Z,6.91
2018-12-30T09:43:33.507Z,6.94
2018-12-30T09:44:39.507Z,6.99
2018-12-30T09:45:34.505Z,6.93
2018-12-30T09:46:33.513Z,6.87
2018-12-30T09:47:33.459Z,6.99
2018-12-30T09:48:33.867Z,7.00
2018-12-30T09:49:33.514Z,7.00
2018-12-30T09:50:35.319Z,7.01
2018-12-30T09:51:33.420Z,7.05
2018-12-30T09:52:35.005Z,7.08
2018-12-30T09:53:34.004Z,7.09
2018-12-30T09:54:33.400Z,7.07
2018-12-30T09:55:33.377Z,7.07
2018-12-30T09:56:33.495Z,7.00
2018-12-30T09:57:33.458Z,7.09
2018-12-30T09:58:33.340Z,7.12
2018-12-30T09:59:33.330Z,7.09
2018-12-30T10:00:34.746Z,7.09
2018-12-30T10:01:33.567Z,7.12
2018-12-30T10:02:33.341Z,7.14
2018-12-30T10:03:34.037Z,7.08
2018-12-30T10:04:33.280Z,7.12
2018-12-30T10:05:33.334Z,7.12
2018-12-30T10:06:34.049Z,7.19
2018-12-30T10:07:35.200Z,7.16
2018-12-30T10:08:34.012Z,7.21
2018-12-30T10:09:34.017Z,7.16
2018-12-30T10:10:33.237Z,7.21
2018-12-30T10:11:35.672Z,7.18
2018-12-30T10:12:33.208Z,7.16
2018-12-30T10:13:33.175Z,7.24
2018-12-30T10:14:33.169Z,7.19
2018-12-30T10:15:33.174Z,7.18
2018-12-30T10:16:33.148Z,7.21
2018-12-30T10:17:33.195Z,7.16
2018-12-30T10:18:33.124Z,7.23
2018-12-30T10:19:33.115Z,7.16
2018-12-30T10:20:33.110Z,7.21
2018-12-30T10:21:33.092Z,7.33
2018-12-30T10:22:33.135Z,7.26
2018-12-30T10:23:33.066Z,7.37
2018-12-30T10:24:33.055Z,7.34
2018-12-30T10:25:33.046Z,7.34
2018-12-30T10:26:33.040Z,7.30
2018-12-30T10:27:33.062Z,7.30
2018-12-30T10:28:33.014Z,7.30
2018-12-30T10:29:33.046Z,7.30
2018-12-30T10:30:32.993Z,7.33
2018-12-30T10:31:32.990Z,7.30
2018-12-30T10:32:32.987Z,7.48
2018-12-30T10:33:32.966Z,7.39
2018-12-30T10:34:32.947Z,7.42
2018-12-30T10:35:32.938Z,7.45
2018-12-30T10:36:32.924Z,7.42
2018-12-30T10:37:32.935Z,7.48
2018-12-30T10:38:32.933Z,7.55
2018-12-30T10:39:32.891Z,7.54
2018-12-30T10:40:32.895Z,7.50
2018-12-30T10:41:32.869Z,7.52
2018-12-30T10:42:32.885Z,7.63
2018-12-30T10:43:32.851Z,7.62
2018-12-30T10:44:32.848Z,7.51
2018-12-30T10:45:32.830Z,7.71
2018-12-30T10:46:32.822Z,7.66
2018-12-30T10:47:32.818Z,7.55
2018-12-30T10:48:32.791Z,7.54
2018-12-30T10:49:32.784Z,7.51
2018-12-30T10:50:32.778Z,7.63
2018-12-30T10:51:32.758Z,7.67
2018-12-30T10:52:32.769Z,7.67
2018-12-30T10:53:32.739Z,7.55
2018-12-30T10:54:32.728Z,7.67
2018-12-30T10:55:32.741Z,7.69
2018-12-30T10:56:32.710Z,7.60
2018-12-30T10:57:33.079Z,7.67
2018-12-30T10:58:32.713Z,7.69
2018-12-30T10:59:32.676Z,7.76
2018-12-30T11:00:42.058Z,7.74
2018-12-30T11:01:42.094Z,7.82
2018-12-30T11:02:42.662Z,7.74
2018-12-30T11:03:32.643Z,7.89
2018-12-30T11:04:32.634Z,7.95
2018-12-30T11:05:32.603Z,7.91
2018-12-30T11:06:32.591Z,7.91
2018-12-30T11:07:32.583Z,7.84
2018-12-30T11:08:41.138Z,7.81
2018-12-30T11:09:32.571Z,7.76
2018-12-30T11:10:32.546Z,7.81
2018-12-30T11:11:32.541Z,7.76
2018-12-30T11:12:32.524Z,7.81
2018-12-30T11:13:32.529Z,7.86
2018-12-30T11:14:32.501Z,7.82
2018-12-30T11:15:32.491Z,7.81
2018-12-30T11:16:32.479Z,7.86
2018-12-30T11:17:32.478Z,7.85
2018-12-30T11:18:32.484Z,7.85
2018-12-30T11:19:32.456Z,7.89
2018-12-30T11:20:32.434Z,7.96
2018-12-30T11:21:32.427Z,7.91
2018-12-30T11:22:32.416Z,7.88
2018-12-30T11:23:32.425Z,7.88
2018-12-30T11:24:32.531Z,7.85
2018-12-30T11:25:32.380Z,7.85
2018-12-30T11:26:32.371Z,7.89
2018-12-30T11:27:32.368Z,7.91
2018-12-30T11:28:32.362Z,7.82
2018-12-30T11:29:32.338Z,7.94
2018-12-30T11:30:32.329Z,7.88
2018-12-30T11:31:32.319Z,7.91
2018-12-30T11:32:32.306Z,7.92
2018-12-30T11:33:32.307Z,7.91
2018-12-30T11:34:32.286Z,7.86
2018-12-30T11:35:32.272Z,7.89
2018-12-30T11:36:32.265Z,7.89
2018-12-30T11:37:32.249Z,7.89
2018-12-30T11:38:32.265Z,7.94
2018-12-30T11:39:32.230Z,7.88
2018-12-30T11:40:32.225Z,7.82
2018-12-30T11:41:32.206Z,7.82
2018-12-30T11:42:32.194Z,7.81
2018-12-30T11:43:32.199Z,7.82
2018-12-30T11:44:32.172Z,7.82
2018-12-30T11:45:32.170Z,7.74
2018-12-30T11:46:32.175Z,7.81
2018-12-30T11:47:32.141Z,7.82
2018-12-30T11:48:32.146Z,7.77
2018-12-30T11:49:32.133Z,7.71
2018-12-30T11:50:32.107Z,7.74
2018-12-30T11:51:32.099Z,7.69
2018-12-30T11:52:32.088Z,7.73
2018-12-30T11:53:32.090Z,7.74
2018-12-30T11:54:32.063Z,7.63
2018-12-30T11:55:32.053Z,7.63
2018-12-30T11:56:32.054Z,7.67
2018-12-30T11:57:32.040Z,7.67
2018-12-30T11:58:32.038Z,7.76
2018-12-30T11:59:32.010Z,7.70
2018-12-30T12:00:31.999Z,7.70
2018-12-30T12:01:31.988Z,7.73
2018-12-30T12:02:31.984Z,7.66
2018-12-30T12:03:31.982Z,7.60
2018-12-30T12:04:31.954Z,7.63
2018-12-30T12:05:31.949Z,7.71
2018-12-30T12:06:31.933Z,7.73
2018-12-30T12:07:31.922Z,7.71
2018-12-30T12:08:31.938Z,7.81
2018-12-30T12:09:31.907Z,7.81
2018-12-30T12:10:31.889Z,7.74
2018-12-30T12:11:31.880Z,7.82
2018-12-30T12:12:31.868Z,7.81
2018-12-30T12:13:31.871Z,7.79
2018-12-30T12:14:31.854Z,7.82
2018-12-30T12:15:31.834Z,7.86
2018-12-30T12:16:31.824Z,7.85
2018-12-30T12:17:31.814Z,7.79
2018-12-30T12:18:31.825Z,7.82
2018-12-30T12:19:31.796Z,7.84
2018-12-30T12:20:31.785Z,7.82
2018-12-30T12:21:31.779Z,7.82
2018-12-30T12:22:31.764Z,7.84
2018-12-30T12:23:31.763Z,7.85
2018-12-30T12:24:31.736Z,7.86
2018-12-30T12:25:31.732Z,7.84
2018-12-30T12:26:31.719Z,7.91
2018-12-30T12:27:31.744Z,7.91
2018-12-30T12:28:31.708Z,7.95
2018-12-30T12:29:31.682Z,7.94
2018-12-30T12:30:31.676Z,7.84
2018-12-30T12:31:31.661Z,7.91
2018-12-30T12:32:31.648Z,8.00
2018-12-30T12:33:31.696Z,7.86
2018-12-30T12:34:31.626Z,8.00
2018-12-30T12:35:31.617Z,7.89
2018-12-30T12:36:31.619Z,7.89
2018-12-30T12:37:31.610Z,7.92
2018-12-30T12:38:31.597Z,7.91
2018-12-30T12:39:31.576Z,7.89
2018-12-30T12:40:31.565Z,7.92
2018-12-30T12:41:31.553Z,7.99
2018-12-30T12:42:31.545Z,7.96
2018-12-30T12:43:31.554Z,7.91
2018-12-30T12:44:31.521Z,7.91
2018-12-30T12:45:31.509Z,7.89
2018-12-30T12:46:31.499Z,7.89
2018-12-30T12:47:31.514Z,7.96
2018-12-30T12:48:31.488Z,7.95
2018-12-30T12:49:31.462Z,7.91
2018-12-30T12:50:31.453Z,7.94
2018-12-30T12:51:31.445Z,7.99
2018-12-30T12:52:31.431Z,7.92
2018-12-30T12:53:31.434Z,8.00
2018-12-30T12:54:32.229Z,8.02
2018-12-30T12:55:31.511Z,8.04
2018-12-30T12:56:31.389Z,8.04
2018-12-30T12:57:31.375Z,8.00
2018-12-30T12:58:31.457Z,7.96
2018-12-30T12:59:31.363Z,7.91
2018-12-30T13:00:31.351Z,7.96
2018-12-30T13:01:31.336Z,7.94
2018-12-30T13:02:31.340Z,7.96
2018-12-30T13:03:31.326Z,8.00
2018-12-30T13:04:31.350Z,7.99
2018-12-30T13:05:31.340Z,7.92
2018-12-30T13:06:31.278Z,8.00
2018-12-30T13:07:31.290Z,8.04
2018-12-30T13:08:31.294Z,8.00
2018-12-30T13:09:31.245Z,8.06
2018-12-30T13:10:31.234Z,8.02
2018-12-30T13:11:31.223Z,8.02
2018-12-30T13:12:31.214Z,8.03
2018-12-30T13:13:31.209Z,8.02
2018-12-30T13:14:31.342Z,8.02
2018-12-30T13:15:31.194Z,7.99
2018-12-30T13:16:31.190Z,8.06
2018-12-30T13:17:31.160Z,7.94
2018-12-30T13:18:31.146Z,8.04
2018-12-30T13:19:31.151Z,8.06
2018-12-30T13:20:31.125Z,7.99
2018-12-30T13:21:31.123Z,8.02
2018-12-30T13:22:31.102Z,8.04
2018-12-30T13:23:31.094Z,8.03
2018-12-30T13:24:31.097Z,7.99